Time;durP1;ratioP1;P1;durP2;ratioP2;P2;SDS_P1;SDS_P2;PMS_P1;PMS_P2;Temp;Humidity;BMP_temperature;BMP_pressure;BME280_temperature;BME280_humidity;BME280_pressure;Samples;Min_cycle;Max_cycle;Signal;HPM_P1;HPM_P2
2023/07/20 00:02:23;;;;;;;3.08;2.30;;;;;;;25.07;45.14;94384.88;4931726;29;20734;-90
2023/07/20 00:04:50;;;;;;;4.00;2.40;;;;;;;24.97;45.84;94411.44;4932779;29;21026;-90
2023/07/20 00:07:16;;;;;;;2.85;2.25;;;;;;;24.86;45.78;94399.50;4938397;29;20236;-92
2023/07/20 00:09:43;;;;;;;3.28;2.13;;;;;;;24.93;45.54;94407.81;4933782;29;20595;-90
2023/07/20 00:12:10;;;;;;;2.92;2.17;;;;;;;24.92;45.60;94411.50;4932934;29;20602;-90
2023/07/20 00:14:38;;;;;;;3.70;2.10;;;;;;;24.90;45.27;94397.84;4932837;29;20591;-90
2023/07/20 00:17:04;;;;;;;5.38;2.10;;;;;;;24.86;45.82;94402.16;4932026;29;20206;-92
2023/07/20 00:19:33;;;;;;;5.40;2.20;;;;;;;24.85;45.53;94413.75;4932826;29;20220;-90
2023/07/20 00:21:59;;;;;;;4.07;2.17;;;;;;;24.85;45.94;94411.13;4932784;29;20233;-90
2023/07/20 00:24:26;;;;;;;2.50;2.00;;;;;;;24.89;45.76;94409.47;4932945;29;20208;-90
2023/07/20 00:26:52;;;;;;;4.53;2.13;;;;;;;24.84;45.91;94414.81;4932794;29;20201;-90
2023/07/20 00:29:19;;;;;;;3.22;1.95;;;;;;;24.82;46.25;94429.38;4933039;29;20274;-90
2023/07/20 00:31:45;;;;;;;4.85;2.28;;;;;;;24.86;45.76;94427.69;4932887;29;20225;-89
2023/07/20 00:34:11;;;;;;;5.18;2.13;;;;;;;24.84;46.18;94432.47;4931384;29;20208;-90
2023/07/20 00:36:39;;;;;;;3.67;1.98;;;;;;;24.79;46.28;94451.81;4933144;29;20212;-90
2023/07/20 00:39:06;;;;;;;3.17;2.13;;;;;;;24.82;46.23;94467.03;4933260;29;20226;-90
2023/07/20 00:41:33;;;;;;;4.18;2.20;;;;;;;24.80;46.30;94466.53;4932436;29;20241;-91
2023/07/20 00:43:59;;;;;;;5.00;2.20;;;;;;;24.85;46.11;94447.19;4932832;29;20294;-90
2023/07/20 00:46:26;;;;;;;2.50;2.08;;;;;;;24.82;46.44;94460.97;4932881;29;20611;-90
2023/07/20 00:48:53;;;;;;;4.15;2.10;;;;;;;24.82;46.51;94460.97;4932704;29;20202;-90
2023/07/20 00:51:20;;;;;;;2.20;1.88;;;;;;;24.81;46.30;94472.59;4930867;29;20233;-91
2023/07/20 00:53:48;;;;;;;3.38;2.22;;;;;;;24.83;46.49;94468.56;4932901;29;20205;-91
2023/07/20 00:56:16;;;;;;;4.75;2.40;;;;;;;24.82;46.36;94468.88;4932588;29;20209;-90
2023/07/20 00:58:42;;;;;;;3.70;2.00;;;;;;;24.82;46.43;94472.28;4932700;29;20228;-91
2023/07/20 01:01:09;;;;;;;6.03;2.50;;;;;;;24.81;46.43;94470.72;4932517;29;20746;-91
2023/07/20 01:03:35;;;;;;;2.63;1.80;;;;;;;24.82;46.20;94480.19;4932213;29;20209;-90
2023/07/20 01:06:14;;;;;;;3.08;2.25;;;;;;;24.78;46.63;94493.16;4930737;29;20213;-90
2023/07/20 01:08:48;;;;;;;9.18;2.20;;;;;;;24.74;46.89;94489.53;4923370;29;20217;-90
2023/07/20 01:11:24;;;;;;;3.33;2.00;;;;;;;24.76;46.63;94482.13;4932561;29;20716;-90
2023/07/20 01:13:54;;;;;;;5.32;2.08;;;;;;;24.70;46.82;94490.41;4924998;29;20201;-90
2023/07/20 01:16:20;;;;;;;3.35;2.05;;;;;;;24.64;47.27;94488.94;4933042;29;20212;-90
2023/07/20 01:18:47;;;;;;;5.43;2.05;;;;;;;24.53;47.46;94498.88;4932320;29;20206;-90
2023/07/20 01:21:22;;;;;;;3.90;2.08;;;;;;;24.63;47.15;94490.03;4931550;29;20598;-90
2023/07/20 01:24:12;;;;;;;2.67;2.20;;;;;;;24.61;47.19;94495.59;4929172;28;20291;-90
2023/07/20 01:27:01;;;;;;;4.07;2.10;;;;;;;24.63;47.35;94505.81;4932023;29;20202;-90
2023/07/20 01:29:42;;;;;;;3.10;1.63;;;;;;;24.61;47.27;94503.47;4932097;29;20209;-90
2023/07/20 01:32:10;;;;;;;2.83;2.10;;;;;;;24.59;47.57;94521.41;4932082;29;20236;-91
2023/07/20 01:34:39;;;;;;;2.28;2.03;;;;;;;24.60;47.35;94506.41;4913013;29;20206;-90
2023/07/20 01:37:07;;;;;;;2.38;2.17;;;;;;;24.57;47.60;94523.53;4918464;29;20205;-91
2023/07/20 01:39:34;;;;;;;5.25;2.20;;;;;;;24.54;47.63;94529.38;4930615;29;20220;-90
2023/07/20 01:42:01;;;;;;;3.67;2.08;;;;;;;24.50;48.08;94544.19;4931563;29;20631;-90
2023/07/20 01:44:28;;;;;;;5.70;2.30;;;;;;;24.47;47.89;94541.34;4931781;29;20205;-92
2023/07/20 01:46:55;;;;;;;4.50;2.20;;;;;;;24.42;48.27;94555.38;4932058;29;20238;-90
2023/07/20 01:49:23;;;;;;;2.55;2.17;;;;;;;24.43;48.22;94559.59;4932426;29;20213;-90
2023/07/20 01:51:49;;;;;;;2.20;2.00;;;;;;;24.48;48.22;94551.59;4931434;29;20229;-90
2023/07/20 01:54:16;;;;;;;5.72;2.20;;;;;;;24.54;47.85;94544.41;4929881;29;20198;-90
2023/07/20 01:56:42;;;;;;;2.55;2.15;;;;;;;24.48;47.93;94548.94;4931535;29;20215;-90
2023/07/20 01:59:08;;;;;;;2.42;2.22;;;;;;;24.42;48.10;94545.66;4931371;29;20198;-91
2023/07/20 02:01:35;;;;;;;2.40;2.20;;;;;;;24.50;47.70;94533.66;4931376;29;20229;-91
2023/07/20 02:04:01;;;;;;;4.90;2.20;;;;;;;24.53;47.63;94521.78;4937880;28;20736;-89
2023/07/20 02:06:29;;;;;;;3.40;1.92;;;;;;;24.47;47.29;94522.94;4931616;29;20205;-91
2023/07/20 02:08:56;;;;;;;3.45;2.00;;;;;;;24.45;47.70;94526.63;4927447;29;20194;-90
2023/07/20 02:11:22;;;;;;;3.05;2.00;;;;;;;24.49;47.37;94532.09;4924322;29;20234;-89
2023/07/20 02:13:49;;;;;;;6.75;2.22;;;;;;;24.43;47.79;94528.00;4931331;29;20206;-90
2023/07/20 02:16:15;;;;;;;3.00;2.20;;;;;;;24.41;47.99;94532.78;4931661;29;20205;-90
2023/07/20 02:18:42;;;;;;;6.78;2.00;;;;;;;24.39;47.79;94527.03;4931660;29;20213;-89
2023/07/20 02:21:08;;;;;;;3.35;1.98;;;;;;;24.28;47.88;94522.97;4930633;29;20311;-90
2023/07/20 02:23:36;;;;;;;4.00;1.88;;;;;;;24.25;47.60;94529.59;4931039;29;20204;-90
2023/07/20 02:26:02;;;;;;;2.65;1.80;;;;;;;24.22;47.32;94517.00;4929880;29;20209;-90
2023/07/20 02:28:29;;;;;;;2.00;1.80;;;;;;;24.19;47.09;94491.28;4931084;29;20209;-89
2023/07/20 02:30:55;;;;;;;4.00;1.75;;;;;;;24.16;46.84;94483.94;4930936;29;20237;-90
2023/07/20 02:33:22;;;;;;;4.63;2.08;;;;;;;24.10;47.18;94488.50;4931086;29;20683;-90
2023/07/20 02:35:48;;;;;;;2.40;1.88;;;;;;;24.11;47.10;94484.03;4931393;29;20207;-90
2023/07/20 02:38:15;;;;;;;3.25;1.88;;;;;;;24.16;46.57;94483.94;4930818;29;20211;-91
2023/07/20 02:40:43;;;;;;;2.85;1.58;;;;;;;24.18;46.47;94466.03;4930920;29;20233;-90
2023/07/20 02:43:10;;;;;;;2.88;1.80;;;;;;;24.14;46.67;94470.31;4929584;29;20197;-90
2023/07/20 02:45:41;;;;;;;7.28;1.90;;;;;;;24.11;46.49;94471.66;4930732;29;20218;-90
2023/07/20 02:48:07;;;;;;;4.70;1.80;;;;;;;24.10;46.61;94474.56;4931059;29;20202;-90
2023/07/20 02:50:34;;;;;;;7.80;2.00;;;;;;;24.07;46.85;94488.28;4930959;29;20389;-90
2023/07/20 02:53:01;;;;;;;3.50;1.70;;;;;;;24.02;46.49;94491.81;4930419;29;20560;-90
2023/07/20 02:55:27;;;;;;;2.33;1.67;;;;;;;23.94;46.63;94494.28;4931466;29;20208;-90
2023/07/20 02:57:55;;;;;;;4.75;1.55;;;;;;;23.94;46.68;94487.19;4931419;29;20210;-90
2023/07/20 03:00:23;;;;;;;2.60;1.58;;;;;;;23.97;46.64;94489.25;4928867;29;20225;-91
2023/07/20 03:02:52;;;;;;;3.65;1.70;;;;;;;23.94;46.97;94508.22;4930738;29;20208;-89
2023/07/20 03:05:19;;;;;;;2.65;1.60;;;;;;;23.95;47.16;94527.41;4925720;29;20198;-89
2023/07/20 03:07:45;;;;;;;3.33;1.50;;;;;;;23.86;47.29;94518.63;4930922;29;20208;-90
2023/07/20 03:10:12;;;;;;;2.88;1.92;;;;;;;23.91;47.05;94521.16;4931163;29;20220;-89
2023/07/20 03:12:39;;;;;;;4.10;1.65;;;;;;;23.91;47.64;94545.59;4930614;29;20574;-90
2023/07/20 03:15:08;;;;;;;2.25;1.50;;;;;;;23.89;47.73;94571.41;4929188;29;20616;-90
2023/07/20 03:17:34;;;;;;;4.20;1.73;;;;;;;23.87;48.39;94594.56;4931700;29;20210;-91
2023/07/20 03:20:02;;;;;;;2.22;1.60;;;;;;;23.85;48.38;94596.72;4930563;29;20209;-89
2023/07/20 03:22:29;;;;;;;4.63;1.90;;;;;;;23.84;48.68;94616.19;4929627;29;20883;-90
2023/07/20 03:24:55;;;;;;;2.20;1.45;;;;;;;23.72;49.61;94669.16;4930758;29;20198;-90
2023/07/20 03:27:22;;;;;;;1.85;1.67;;;;;;;23.53;49.99;94699.84;4930903;29;20679;-89
2023/07/20 03:29:48;;;;;;;2.45;1.48;;;;;;;23.46;51.86;94775.59;4930319;29;20678;-92
2023/07/20 03:32:16;;;;;;;3.38;1.77;;;;;;;23.31;55.37;94934.09;4930629;29;20683;-90
2023/07/20 03:34:44;;;;;;;4.05;2.17;;;;;;;23.08;56.69;94979.41;4933477;29;20681;-87
2023/07/20 03:37:10;;;;;;;3.15;1.70;;;;;;;22.98;57.22;95021.47;4933479;29;20554;-87
2023/07/20 03:39:37;;;;;;;3.45;1.50;;;;;;;22.87;58.89;95082.94;4934094;29;20210;-87
2023/07/20 03:42:04;;;;;;;2.72;1.80;;;;;;;22.86;57.92;95041.97;4933758;29;20247;-88
2023/07/20 03:44:31;;;;;;;5.75;1.90;;;;;;;22.84;58.35;95062.47;4933517;29;20224;-87
2023/07/20 03:46:57;;;;;;;2.47;1.90;;;;;;;22.82;58.41;95062.72;4932482;29;20208;-89
2023/07/20 03:49:25;;;;;;;6.53;1.83;;;;;;;22.75;57.70;95036.72;4929427;29;20213;-89
2023/07/20 03:51:53;;;;;;;3.38;1.80;;;;;;;22.69;58.62;95076.38;4933310;29;20942;-90
2023/07/20 03:54:19;;;;;;;2.00;1.60;;;;;;;22.80;59.43;95124.41;4934478;29;20225;-89
2023/07/20 03:56:46;;;;;;;2.50;1.85;;;;;;;22.73;59.47;95124.63;4933665;29;20194;-88
2023/07/20 03:59:13;;;;;;;3.95;2.25;;;;;;;22.71;59.07;95096.03;4933362;29;20397;-88
2023/07/20 04:01:40;;;;;;;2.90;1.75;;;;;;;22.70;59.55;95133.06;4931935;29;20214;-89
2023/07/20 04:04:08;;;;;;;2.80;1.70;;;;;;;22.58;60.11;95156.13;4931017;29;20289;-89
2023/07/20 04:06:36;;;;;;;3.67;1.80;;;;;;;22.55;59.96;95152.19;4933274;29;20598;-88
2023/07/20 04:09:04;;;;;;;3.67;1.63;;;;;;;22.53;59.86;95143.00;4933831;29;20256;-87
2023/07/20 04:11:31;;;;;;;2.10;1.60;;;;;;;22.53;59.49;95132.50;4933525;29;20751;-89
2023/07/20 04:13:57;;;;;;;2.03;1.70;;;;;;;22.47;59.94;95137.00;4932871;29;20209;-89
2023/07/20 04:16:24;;;;;;;2.03;1.60;;;;;;;22.54;59.30;95102.59;4933347;29;20209;-88
2023/07/20 04:18:50;;;;;;;3.15;1.70;;;;;;;22.56;60.08;95143.28;4932439;29;20932;-88
2023/07/20 04:21:17;;;;;;;2.55;1.60;;;;;;;22.54;59.69;95132.25;4931818;28;20718;-88
2023/07/20 04:23:45;;;;;;;1.75;1.55;;;;;;;22.63;59.29;95124.66;4932855;29;20694;-90
2023/07/20 04:26:14;;;;;;;2.88;1.88;;;;;;;22.59;59.84;95145.38;4933199;29;20202;-89
2023/07/20 04:28:44;;;;;;;3.30;1.60;;;;;;;22.58;59.67;95141.19;4932758;29;20201;-89
2023/07/20 04:31:11;;;;;;;3.30;1.98;;;;;;;22.50;59.86;95141.72;4932863;29;20326;-88
2023/07/20 04:33:37;;;;;;;3.67;1.70;;;;;;;22.53;59.88;95148.25;4933612;29;20245;-89
2023/07/20 04:36:04;;;;;;;3.70;1.70;;;;;;;22.50;60.04;95167.19;4930633;29;20202;-90
2023/07/20 04:38:30;;;;;;;2.47;1.60;;;;;;;22.52;60.60;95165.06;4933459;29;20214;-89
2023/07/20 04:40:58;;;;;;;2.45;1.70;;;;;;;22.47;60.24;95159.81;4933259;29;20312;-89
2023/07/20 04:43:25;;;;;;;2.92;1.60;;;;;;;22.47;60.26;95159.81;4932926;29;20209;-89
2023/07/20 04:45:56;;;;;;;4.63;1.92;;;;;;;22.39;61.48;95200.47;4933983;29;20217;-90
2023/07/20 04:48:23;;;;;;;1.88;1.77;;;;;;;22.37;60.38;95179.72;4934631;29;20212;-88
2023/07/20 04:50:49;;;;;;;2.00;1.70;;;;;;;22.35;60.38;95175.78;4934570;29;20623;-89
2023/07/20 04:53:16;;;;;;;2.00;1.60;;;;;;;22.36;60.23;95170.28;4934136;29;20208;-89
2023/07/20 04:55:50;;;;;;;4.45;2.15;;;;;;;22.38;60.23;95175.28;4933591;29;20216;-89
2023/07/20 04:58:18;;;;;;;5.82;2.13;;;;;;;22.40;60.36;95184.47;4928982;29;20198;-89
2023/07/20 05:00:45;;;;;;;2.85;2.17;;;;;;;22.43;59.92;95172.66;4934319;29;20236;-88
2023/07/20 05:03:11;;;;;;;2.90;1.98;;;;;;;22.41;59.40;95145.91;4917331;29;20229;-89
2023/07/20 05:05:38;;;;;;;2.17;1.90;;;;;;;22.34;59.05;95135.66;4932043;29;20209;-89
2023/07/20 05:08:05;;;;;;;3.80;2.20;;;;;;;22.35;59.10;95131.19;4931026;29;20594;-88
2023/07/20 05:10:32;;;;;;;4.70;2.20;;;;;;;22.40;58.80;95128.59;4932579;29;20229;-89
2023/07/20 05:12:58;;;;;;;4.50;2.08;;;;;;;22.39;58.12;95083.19;4933571;29;20229;-89
2023/07/20 05:15:26;;;;;;;5.57;1.85;;;;;;;22.38;57.12;95049.34;4933316;29;20210;-88
2023/07/20 05:17:54;;;;;;;2.97;1.90;;;;;;;22.37;57.39;95058.28;4933534;29;20297;-88
2023/07/20 05:20:21;;;;;;;2.42;2.00;;;;;;;22.38;56.21;95016.03;4933473;29;20240;-89
2023/07/20 05:22:47;;;;;;;5.95;1.98;;;;;;;22.33;56.10;94989.81;4932180;29;20202;-89
2023/07/20 05:25:18;;;;;;;4.07;2.15;;;;;;;22.33;55.29;94966.19;4931438;29;20216;-90
2023/07/20 05:27:46;;;;;;;4.80;2.40;;;;;;;22.34;55.25;94953.88;4932312;29;20205;-89
2023/07/20 05:30:14;;;;;;;5.97;2.20;;;;;;;22.32;54.87;94943.63;4931696;29;20197;-88
2023/07/20 05:32:46;;;;;;;8.18;4.07;;;;;;;22.28;55.76;94984.59;4932112;29;20229;-89
2023/07/20 05:35:12;;;;;;;5.22;2.67;;;;;;;22.34;54.86;94944.16;4932814;29;20198;-88
2023/07/20 05:37:39;;;;;;;7.43;6.65;;;;;;;22.37;54.16;94906.13;4931572;29;20300;-89
2023/07/20 05:40:08;;;;;;;12.18;10.98;;;;;;;22.43;53.40;94873.59;4930340;29;20269;-89
2023/07/20 05:42:34;;;;;;;5.03;4.53;;;;;;;22.49;52.28;94821.91;4931898;29;20266;-89
2023/07/20 05:45:01;;;;;;;6.25;3.38;;;;;;;22.40;53.32;94863.63;4931650;29;20969;-88
2023/07/20 05:47:29;;;;;;;3.75;2.58;;;;;;;22.42;52.27;94816.94;4931724;29;20238;-90
2023/07/20 05:49:56;;;;;;;4.25;1.90;;;;;;;22.46;51.53;94794.34;4936693;29;20331;-88
2023/07/20 05:52:27;;;;;;;2.83;1.70;;;;;;;22.51;51.21;94781.22;4931387;29;20229;-89
2023/07/20 05:54:54;;;;;;;4.28;1.88;;;;;;;22.57;50.40;94750.47;4923565;29;20213;-89
2023/07/20 05:57:20;;;;;;;3.00;1.75;;;;;;;22.60;50.75;94750.72;4930286;29;20212;-89
2023/07/20 05:59:50;;;;;;;3.83;2.00;;;;;;;22.61;50.86;94735.75;4932116;29;20209;-89
2023/07/20 06:02:17;;;;;;;5.10;2.08;;;;;;;22.67;50.08;94729.44;4931465;29;20264;-89
2023/07/20 06:04:43;;;;;;;3.83;2.00;;;;;;;22.78;50.08;94725.69;4931232;29;20193;-89
2023/07/20 06:07:14;;;;;;;2.63;2.05;;;;;;;22.76;49.03;94670.03;4932836;29;20213;-89
2023/07/20 06:09:40;;;;;;;2.95;1.75;;;;;;;22.89;49.20;94681.78;4934037;29;20225;-89
2023/07/20 06:12:08;;;;;;;3.15;1.83;;;;;;;22.87;48.78;94634.81;4930217;29;20276;-89
2023/07/20 06:14:35;;;;;;;3.38;2.15;;;;;;;23.01;48.94;94661.19;4931559;29;20579;-90
2023/07/20 06:17:03;;;;;;;3.40;1.80;;;;;;;22.99;47.71;94593.22;4931600;29;20216;-89
2023/07/20 06:19:29;;;;;;;2.50;1.80;;;;;;;22.92;47.16;94577.00;4932120;29;20213;-89
2023/07/20 06:21:55;;;;;;;3.00;1.90;;;;;;;23.01;47.17;94561.44;4930098;29;20707;-89
2023/07/20 06:24:27;;;;;;;4.05;1.88;;;;;;;22.99;47.54;94595.84;4931182;28;20213;-89
2023/07/20 06:26:53;;;;;;;2.28;2.03;;;;;;;22.95;48.28;94638.66;4931580;29;20233;-90
2023/07/20 06:29:20;;;;;;;3.67;1.80;;;;;;;22.99;48.04;94616.84;4929505;29;20260;-89
2023/07/20 06:31:46;;;;;;;3.88;2.33;;;;;;;22.97;47.25;94571.69;4931226;29;20265;-89
2023/07/20 06:34:13;;;;;;;2.35;1.92;;;;;;;22.93;47.28;94572.53;4931593;29;20205;-88
2023/07/20 06:36:39;;;;;;;3.63;1.92;;;;;;;22.98;47.37;94582.97;4931492;29;20845;-89
2023/07/20 06:39:07;;;;;;;2.33;2.03;;;;;;;22.88;48.02;94609.34;4931460;29;20206;-89
2023/07/20 06:41:37;;;;;;;2.97;1.70;;;;;;;22.98;47.51;94601.38;4931854;29;20244;-89
2023/07/20 06:44:05;;;;;;;2.97;2.00;;;;;;;23.04;47.70;94610.75;4929800;29;20220;-88
2023/07/20 06:46:33;;;;;;;3.80;2.08;;;;;;;22.95;46.86;94542.31;4930597;29;20217;-91
2023/07/20 06:48:59;;;;;;;4.65;2.10;;;;;;;22.97;47.56;94576.94;4931609;29;20282;-89
2023/07/20 06:51:31;;;;;;;3.20;1.88;;;;;;;23.03;47.54;94586.34;4915615;29;20218;-91
2023/07/20 06:53:58;;;;;;;5.72;4.93;;;;;;;23.15;47.63;94596.44;4912382;29;20214;-90
2023/07/20 06:56:24;;;;;;;5.32;3.47;;;;;;;23.17;46.99;94569.91;4912995;29;20221;-90
2023/07/20 06:58:52;;;;;;;3.47;3.17;;;;;;;23.23;47.16;94590.59;4918771;29;20667;-90
2023/07/20 07:01:20;;;;;;;2.85;2.60;;;;;;;23.18;46.33;94535.50;4930074;29;20221;-90
2023/07/20 07:03:47;;;;;;;3.42;2.78;;;;;;;23.31;46.57;94547.16;4931270;29;20759;-90
2023/07/20 07:06:15;;;;;;;2.90;2.20;;;;;;;23.26;46.21;94531.47;4934481;29;20217;-89
2023/07/20 07:08:44;;;;;;;3.50;2.47;;;;;;;23.40;46.62;94542.84;4935370;29;20209;-89
2023/07/20 07:11:11;;;;;;;2.58;2.05;;;;;;;23.49;46.03;94506.22;4935523;29;20225;-89
2023/07/20 07:13:37;;;;;;;4.15;2.20;;;;;;;23.52;46.02;94503.81;4934589;29;20233;-90
2023/07/20 07:16:06;;;;;;;3.35;2.05;;;;;;;23.61;46.18;94522.38;4935284;29;20205;-89
2023/07/20 07:18:32;;;;;;;2.97;2.17;;;;;;;23.71;45.41;94488.06;4933846;29;20367;-89
2023/07/20 07:20:59;;;;;;;4.22;1.98;;;;;;;23.76;45.15;94457.22;4934036;29;20594;-89
2023/07/20 07:23:27;;;;;;;3.53;1.92;;;;;;;23.82;45.28;94457.94;4934703;29;20201;-89
2023/07/20 07:25:53;;;;;;;2.20;2.00;;;;;;;23.81;45.08;94452.97;4934682;29;20586;-89
2023/07/20 07:28:20;;;;;;;2.80;1.90;;;;;;;23.84;44.98;94458.44;4934211;29;20213;-89
2023/07/20 07:30:46;;;;;;;2.35;1.98;;;;;;;23.92;44.38;94436.72;4934303;29;20229;-87
2023/07/20 07:33:14;;;;;;;2.95;2.45;;;;;;;23.99;44.55;94450.31;4933290;29;20229;-90
2023/07/20 07:35:40;;;;;;;2.53;1.90;;;;;;;23.83;44.16;94419.28;4934277;29;20209;-89
2023/07/20 07:38:07;;;;;;;3.30;2.08;;;;;;;23.88;44.61;94451.50;4934934;29;20844;-90
2023/07/20 07:40:34;;;;;;;4.22;2.30;;;;;;;23.98;43.76;94430.34;4934898;29;20237;-89
2023/07/20 07:43:00;;;;;;;3.85;2.10;;;;;;;23.98;44.22;94435.59;4934176;29;20206;-90
2023/07/20 07:45:27;;;;;;;2.42;1.80;;;;;;;24.00;43.80;94406.38;4934654;29;20314;-89
2023/07/20 07:47:53;;;;;;;2.22;1.80;;;;;;;24.01;42.74;94344.84;4919690;29;20675;-90
2023/07/20 07:50:21;;;;;;;2.25;1.77;;;;;;;24.04;43.02;94352.94;4932170;29;20212;-90
2023/07/20 07:52:48;;;;;;;2.80;1.63;;;;;;;24.03;43.72;94398.69;4933317;29;20230;-90
2023/07/20 07:55:16;;;;;;;11.05;9.98;;;;;;;24.01;43.28;94373.75;4933641;29;20229;-89
2023/07/20 07:57:43;;;;;;;2.42;2.15;;;;;;;23.86;42.61;94337.97;4933501;29;20210;-90
2023/07/20 08:00:14;;;;;;;6.82;6.13;;;;;;;23.96;43.51;94385.13;4934110;29;20201;-89
2023/07/20 08:02:41;;;;;;;2.97;2.40;;;;;;;24.08;43.04;94372.28;4933823;29;21025;-89
2023/07/20 08:05:10;;;;;;;4.60;2.80;;;;;;;24.28;43.49;94392.22;4932516;29;20631;-89
2023/07/20 08:07:39;;;;;;;2.50;2.30;;;;;;;24.52;42.80;94357.81;4934073;29;20213;-89
2023/07/20 08:10:16;;;;;;;2.08;1.98;;;;;;;24.60;42.58;94372.16;4934527;29;20239;-90
2023/07/20 08:12:45;;;;;;;2.80;1.95;;;;;;;24.72;42.06;94330.31;4933448;29;20217;-89
2023/07/20 08:15:14;;;;;;;2.85;2.03;;;;;;;24.82;42.28;94310.91;4934234;29;20206;-89
2023/07/20 08:17:41;;;;;;;3.42;1.85;;;;;;;24.97;42.21;94336.94;4933380;29;20209;-89
2023/07/20 08:20:11;;;;;;;2.65;1.85;;;;;;;25.09;41.49;94318.72;4933646;29;20212;-89
2023/07/20 08:22:39;;;;;;;2.53;1.70;;;;;;;25.21;41.41;94287.34;4927388;29;20205;-90
2023/07/20 08:25:06;;;;;;;2.47;1.80;;;;;;;25.19;41.50;94280.84;4933436;29;20714;-89
2023/07/20 08:27:38;;;;;;;1.85;1.73;;;;;;;25.22;40.54;94244.13;4933338;29;20706;-89
2023/07/20 08:30:07;;;;;;;2.70;2.17;;;;;;;25.01;39.55;94183.28;4933234;29;20208;-89
2023/07/20 08:33:10;;;;;;;4.43;1.80;;;;;;;24.97;40.26;94242.13;4933405;29;20598;-89
2023/07/20 08:42:52;;;;;;;;;;;;;;;;;;;;;
2023/07/20 08:45:49;;;;;;;2.35;2.13;;;;;;;24.81;40.60;94262.72;4932739;29;20201;-90
2023/07/20 08:49:09;;;;;;;;;;;;;;;;;;;;;
2023/07/20 08:52:34;;;;;;;2.25;1.83;;;;;;;24.67;40.90;94260.13;4911314;29;20233;-89
2023/07/20 08:55:26;;;;;;;2.42;1.77;;;;;;;24.70;40.89;94250.84;4890898;29;20304;-89
2023/07/20 09:01:29;;;;;;;1.98;1.70;;;;;;;24.91;40.73;94259.06;4912453;29;20651;-89
2023/07/20 09:03:59;;;;;;;2.28;1.80;;;;;;;24.85;40.71;94268.16;4914825;29;20194;-88
2023/07/20 09:06:36;;;;;;;2.72;1.70;;;;;;;24.90;40.70;94253.03;4932088;29;20697;-88
2023/07/20 09:09:14;;;;;;;3.30;2.17;;;;;;;25.03;40.30;94222.47;4932533;29;20268;-89
2023/07/20 09:11:50;;;;;;;4.57;1.85;;;;;;;25.14;40.69;94258.03;4931980;29;20233;-89
2023/07/20 09:14:42;;;;;;;1.60;1.50;;;;;;;25.15;39.79;94212.19;4932757;29;20247;-89
2023/07/20 09:20:55;;;;;;;2.15;1.80;;;;;;;25.37;39.49;94190.28;4847349;29;20820;-89
2023/07/20 09:23:53;;;;;;;;;;;;;;;;;;;;;
2023/07/20 09:27:01;;;;;;;;;;;;;;;;;;;;;
2023/07/20 09:30:03;;;;;;;1.83;1.70;;;;;;;25.80;38.11;94112.13;4853182;29;20212;-89
2023/07/20 09:36:14;;;;;;;8.20;6.85;;;;;;;25.77;38.66;94104.88;4911516;29;20281;-89
2023/07/20 09:42:25;;;;;;;3.30;1.80;;;;;;;26.05;37.10;94043.91;4906146;29;20624;-89
2023/07/20 09:45:33;;;;;;;2.47;1.63;;;;;;;26.33;38.36;94123.56;4931067;29;20213;-90
2023/07/20 10:22:33;;;;;;;4.43;1.90;;;;;;;26.44;38.18;94091.25;4787576;29;20323;-89
2023/07/20 10:25:43;;;;;;;2.20;1.98;;;;;;;26.51;38.33;94106.63;4872576;29;20218;-89
2023/07/20 10:28:34;;;;;;;2.25;1.70;;;;;;;26.27;38.62;94108.94;4893016;29;20214;-88
2023/07/20 10:31:21;;;;;;;2.35;1.95;;;;;;;26.13;38.63;94127.56;4948103;28;20699;-89
2023/07/20 10:36:33;;;;;;;7.75;7.00;;;;;;;25.95;39.22;94149.72;4900546;29;20655;-89
2023/07/20 10:39:02;;;;;;;5.05;3.72;;;;;;;26.02;38.83;94127.06;4930472;29;20772;-90
2023/07/20 10:44:47;;;;;;;9.45;4.30;;;;;;;26.08;39.74;94183.09;4918949;29;20248;-89
2023/07/20 10:48:06;;;;;;;9.70;5.68;;;;;;;26.25;40.12;94187.63;4952079;29;20288;-89
2023/07/20 10:58:23;;;;;;;4.85;3.50;;;;;;;26.83;38.16;94077.03;4925994;29;20215;-89
2023/07/20 11:01:38;;;;;;;3.65;2.30;;;;;;;26.75;37.56;94040.09;4934803;29;20272;-89
2023/07/20 11:04:09;;;;;;;3.08;1.90;;;;;;;27.06;37.44;94040.63;4948012;29;20211;-91
2023/07/20 11:07:19;;;;;;;2.00;1.85;;;;;;;27.10;37.29;94048.72;4953260;29;20204;-89
2023/07/20 11:09:45;;;;;;;2.78;2.28;;;;;;;27.40;37.63;94050.25;4934186;29;20299;-89
2023/07/20 11:12:16;;;;;;;2.53;1.98;;;;;;;27.80;37.21;94028.72;4952711;28;20228;-89
2023/07/20 11:14:44;;;;;;;5.25;1.90;;;;;;;27.85;35.97;93965.84;4953419;29;20308;-89
2023/07/20 11:17:20;;;;;;;2.13;1.90;;;;;;;27.67;35.86;93955.72;4953111;29;20204;-89
2023/07/20 11:19:49;;;;;;;2.08;1.80;;;;;;;27.35;35.91;93947.34;4951860;29;20208;-89
2023/07/20 11:22:23;;;;;;;2.00;1.88;;;;;;;27.24;36.54;93969.19;4952702;28;20299;-89
2023/07/20 11:24:50;;;;;;;3.67;2.22;;;;;;;27.33;36.65;93986.53;4953158;29;20212;-89
2023/07/20 11:27:18;;;;;;;2.08;1.85;;;;;;;27.00;36.33;93948.66;4953207;29;20205;-89
2023/07/20 11:29:46;;;;;;;5.10;4.65;;;;;;;26.86;37.33;94020.19;4950936;29;20224;-88
2023/07/20 11:32:12;;;;;;;3.65;2.10;;;;;;;26.57;38.34;94055.19;4946321;29;20766;-89
2023/07/20 11:34:40;;;;;;;2.25;1.80;;;;;;;26.54;38.31;94087.53;4951178;29;20575;-89
2023/07/20 11:37:07;;;;;;;2.40;2.00;;;;;;;26.48;38.81;94104.59;4952767;29;20208;-89
2023/07/20 11:39:36;;;;;;;6.60;2.10;;;;;;;26.48;38.56;94094.81;4952583;29;20260;-89
2023/07/20 11:42:06;;;;;;;2.40;1.80;;;;;;;26.46;37.90;94041.56;4952619;28;20256;-89
2023/07/20 11:44:35;;;;;;;4.80;1.80;;;;;;;26.55;37.64;94025.72;4952669;29;20209;-90
2023/07/20 11:47:03;;;;;;;2.47;1.90;;;;;;;26.58;37.27;94016.38;4952796;28;20224;-89
2023/07/20 11:49:30;;;;;;;4.13;1.73;;;;;;;26.52;37.77;94030.84;4952940;28;20563;-88
2023/07/20 11:51:59;;;;;;;3.88;1.90;;;;;;;26.75;37.69;94037.44;4950320;28;20225;-89
2023/07/20 11:54:32;;;;;;;2.70;2.08;;;;;;;27.14;37.94;94046.97;4953342;29;20865;-89
2023/07/20 11:57:01;;;;;;;2.60;2.00;;;;;;;27.15;38.19;94065.13;4953129;29;20870;-89
2023/07/20 11:59:28;;;;;;;3.15;2.10;;;;;;;27.32;37.90;94034.47;4941438;29;20201;-89
2023/07/20 12:01:54;;;;;;;2.85;2.00;;;;;;;27.36;37.31;94006.28;4933358;29;20229;-88
2023/07/20 12:04:24;;;;;;;5.95;2.20;;;;;;;27.33;36.96;93991.06;4933115;29;20202;-88
2023/07/20 12:06:54;;;;;;;3.35;1.70;;;;;;;27.17;36.72;93961.78;4933624;29;20206;-89
2023/07/20 12:09:22;;;;;;;2.42;2.10;;;;;;;27.27;37.11;93961.41;4950101;29;20212;-89
2023/07/20 12:11:51;;;;;;;3.08;1.80;;;;;;;27.35;37.09;93963.22;4952596;28;20232;-90
2023/07/20 12:14:18;;;;;;;2.72;2.53;;;;;;;27.50;37.06;93967.16;4951825;29;20227;-89
2023/07/20 12:16:45;;;;;;;4.93;4.43;;;;;;;27.83;36.42;93951.38;4952424;29;20209;-89
2023/07/20 12:19:18;;;;;;;5.82;5.32;;;;;;;28.28;36.51;93951.47;4952341;29;20228;-89
2023/07/20 12:21:45;;;;;;;2.55;2.30;;;;;;;28.36;36.27;93920.69;4951445;28;20221;-90
2023/07/20 12:24:12;;;;;;;2.65;2.20;;;;;;;28.53;35.94;93915.19;4950931;29;20205;-89
2023/07/20 12:26:40;;;;;;;1.77;1.52;;;;;;;28.11;36.08;93919.81;4951993;29;20216;-89
2023/07/20 12:29:06;;;;;;;2.03;1.83;;;;;;;27.99;36.59;93922.44;4952173;29;20201;-88
2023/07/20 12:31:37;;;;;;;3.65;2.10;;;;;;;27.69;36.58;93919.16;4953282;28;20220;-89
2023/07/20 12:34:04;;;;;;;5.57;2.30;;;;;;;27.37;37.00;93928.53;4951822;29;20260;-89
2023/07/20 12:36:31;;;;;;;2.83;2.00;;;;;;;27.66;37.03;93935.66;4952553;29;20671;-90
2023/07/20 12:38:59;;;;;;;2.20;2.00;;;;;;;28.11;36.66;93946.28;4950841;29;20212;-90
2023/07/20 12:41:27;;;;;;;2.33;1.92;;;;;;;28.27;36.29;93914.72;4951121;28;20613;-89
2023/07/20 12:43:57;;;;;;;2.75;1.75;;;;;;;28.26;35.24;93868.19;4951798;29;20208;-89
2023/07/20 12:46:29;;;;;;;1.88;1.77;;;;;;;28.39;36.80;93933.25;4951627;29;20224;-89
2023/07/20 12:48:55;;;;;;;2.45;1.95;;;;;;;28.63;35.89;93900.75;4951185;29;20244;-89
2023/07/20 12:51:22;;;;;;;3.92;1.80;;;;;;;28.83;35.78;93870.75;4951422;29;20220;-89
2023/07/20 12:53:48;;;;;;;1.60;1.50;;;;;;;28.74;35.66;93878.00;4951333;29;20885;-89
2023/07/20 12:56:15;;;;;;;3.47;3.10;;;;;;;28.54;35.55;93842.56;4949486;29;20223;-90
2023/07/20 12:58:42;;;;;;;22.33;20.25;;;;;;;28.28;35.86;93879.22;4951263;29;20216;-89
2023/07/20 13:01:10;;;;;;;5.03;4.55;;;;;;;28.13;35.86;93860.16;4951118;28;20225;-89
2023/07/20 13:03:36;;;;;;;4.43;4.03;;;;;;;27.97;36.14;93888.38;4950942;28;20208;-89